Time;durP1;ratioP1;P1;durP2;ratioP2;P2;SDS_P1;SDS_P2;PMS_P1;PMS_P2;Temp;Humidity;BMP_temperature;BMP_pressure;BME280_temperature;BME280_humidity;BME280_pressure;Samples;Min_cycle;Max_cycle;Signal;HPM_P1;HPM_P2
2022/01/21 00:00:48;;;;;;;11.83;3.07;;;;;;;-3.11;80.96;100837.84;1640797;87;21955;-76
2022/01/21 00:03:16;;;;;;;10.10;3.20;;;;;;;-3.12;80.96;100837.41;1640502;86;21298;-77
2022/01/21 00:05:43;;;;;;;6.90;1.73;;;;;;;-3.13;80.97;100836.54;1640779;87;21054;-77
2022/01/21 00:08:10;;;;;;;7.73;2.10;;;;;;;-3.14;80.99;100842.05;1640724;87;21503;-76
2022/01/21 00:10:37;;;;;;;10.60;1.80;;;;;;;-3.14;80.98;100855.30;1640654;87;21026;-77
2022/01/21 00:13:14;;;;;;;10.73;1.60;;;;;;;-3.15;80.96;100858.70;1640836;87;21247;-77
2022/01/21 00:15:34;;;;;;;6.87;1.83;;;;;;;-3.16;80.90;100862.97;1640404;87;21045;-77
2022/01/21 00:18:03;;;;;;;3.27;1.30;;;;;;;-3.16;80.90;100868.48;1640668;87;22043;-77
2022/01/21 00:31:31;;;;;;;5.43;1.17;;;;;;;-3.20;80.97;100884.20;1640749;87;21565;-76
2022/01/21 00:33:58;;;;;;;6.13;1.60;;;;;;;-3.20;80.96;100884.20;1640457;87;21575;-76
2022/01/21 00:36:25;;;;;;;5.13;1.73;;;;;;;-3.21;80.92;100883.77;1640878;87;21038;-76
2022/01/21 00:38:55;;;;;;;3.37;1.20;;;;;;;-3.23;80.91;100888.40;1640506;87;21111;-76
2022/01/21 00:41:26;;;;;;;5.70;1.43;;;;;;;-3.23;80.93;100887.11;1640652;87;21543;-76
2022/01/21 00:43:50;;;;;;;9.20;1.73;;;;;;;-3.23;80.89;100888.40;1640677;85;21043;-76
2022/01/21 00:46:19;;;;;;;5.33;1.80;;;;;;;-3.24;80.92;100894.33;1640972;87;21089;-76
2022/01/21 00:48:46;;;;;;;4.97;1.77;;;;;;;-3.25;80.93;100894.75;1640717;87;21117;-76
2022/01/21 00:51:13;;;;;;;6.83;1.40;;;;;;;-3.26;80.93;100890.46;1640974;87;21222;-76
2022/01/21 00:53:41;;;;;;;6.17;1.60;;;;;;;-3.25;80.92;100903.72;1640561;87;21507;-76
2022/01/21 00:56:08;;;;;;;5.43;1.60;;;;;;;-3.27;80.95;100900.27;1640886;87;20998;-76
2022/01/21 00:58:35;;;;;;;4.43;1.50;;;;;;;-3.28;80.85;100902.36;1640629;87;21049;-76
2022/01/21 01:01:03;;;;;;;7.23;1.40;;;;;;;-3.28;80.83;100910.47;1640984;87;21307;-77
2022/01/21 01:03:29;;;;;;;5.50;1.43;;;;;;;-3.30;80.85;100906.98;1640567;87;21152;-76
2022/01/21 01:05:56;;;;;;;6.13;1.10;;;;;;;-3.31;80.83;100909.97;1640890;87;21098;-76
2022/01/21 01:08:23;;;;;;;5.70;1.37;;;;;;;-3.31;80.80;100906.12;1640553;87;21097;-76
2022/01/21 01:21:37;;;;;;;2.00;0.87;;;;;;;-3.37;80.76;100914.52;1640884;87;21514;-76
2022/01/21 01:29:22;;;;;;;4.60;1.10;;;;;;;-3.33;80.91;100919.73;1640446;87;21123;-76
2022/01/21 01:31:51;;;;;;;7.57;1.20;;;;;;;-3.29;80.95;100923.71;1640733;87;21061;-76
2022/01/21 01:34:19;;;;;;;6.90;1.20;;;;;;;-3.26;80.94;100921.23;1640714;87;21518;-76
2022/01/21 01:36:47;;;;;;;6.43;1.20;;;;;;;-3.23;80.92;100908.48;1640824;87;21069;-76
2022/01/21 01:41:56;;;;;;;6.17;1.20;;;;;;;-3.21;80.76;100913.25;1640741;87;22179;-76
2022/01/21 01:49:49;;;;;;;5.50;0.90;;;;;;;-3.20;80.52;100897.03;1640851;87;21085;-76
2022/01/21 01:52:18;;;;;;;6.27;1.00;;;;;;;-3.21;80.48;100892.73;1640811;87;21050;-76
2022/01/21 01:54:50;;;;;;;6.23;1.93;;;;;;;-3.21;80.41;100900.43;1640724;87;21155;-76
2022/01/21 01:57:17;;;;;;;7.17;1.27;;;;;;;-3.20;80.35;100903.86;1640589;87;21065;-76
2022/01/21 01:59:45;;;;;;;5.23;0.87;;;;;;;-3.21;80.32;100891.88;1640560;87;21018;-76
2022/01/21 02:02:16;;;;;;;6.80;1.43;;;;;;;-3.20;80.22;100891.04;1640723;87;21066;-76
2022/01/21 02:04:47;;;;;;;9.93;0.87;;;;;;;-3.19;80.26;100886.35;1640645;87;21459;-76
2022/01/21 02:07:14;;;;;;;5.90;1.02;;;;;;;-3.18;80.25;100885.13;1640909;87;21188;-76
2022/01/21 02:09:43;;;;;;;2.47;0.70;;;;;;;-3.15;80.28;100891.61;1640654;87;21092;-77
2022/01/21 02:12:11;;;;;;;10.30;1.90;;;;;;;-3.10;80.32;100887.00;1640685;87;21261;-76
2022/01/21 02:14:47;;;;;;;8.03;1.13;;;;;;;-3.08;80.19;100891.77;1640853;87;20946;-76
2022/01/21 02:22:43;;;;;;;6.93;1.40;;;;;;;-3.05;80.06;100912.36;1640551;87;21065;-77
2022/01/21 02:25:26;;;;;;;6.30;1.50;;;;;;;-3.06;79.99;100903.80;1640941;85;21054;-77
2022/01/21 02:27:40;;;;;;;7.20;1.47;;;;;;;-3.06;80.01;100915.34;1637471;87;21025;-76
2022/01/21 02:30:09;;;;;;;3.07;1.00;;;;;;;-3.06;79.99;100906.79;1640859;87;21534;-76
2022/01/21 02:32:36;;;;;;;9.87;1.70;;;;;;;-3.07;79.98;100899.94;1640617;87;22029;-77
2022/01/21 02:35:03;;;;;;;9.07;1.20;;;;;;;-3.07;79.97;100902.50;1640841;87;21094;-77
2022/01/21 02:37:30;;;;;;;4.80;1.43;;;;;;;-3.07;80.05;100905.92;1640592;87;21038;-76
2022/01/21 02:39:57;;;;;;;3.40;0.90;;;;;;;-3.07;79.98;100908.91;1640896;87;21099;-76
2022/01/21 02:42:25;;;;;;;6.43;1.27;;;;;;;-3.07;80.06;100908.48;1640563;87;21118;-76
2022/01/21 02:44:52;;;;;;;4.50;1.00;;;;;;;-3.04;80.10;100910.27;1640738;87;21375;-77
2022/01/21 02:47:19;;;;;;;8.20;1.67;;;;;;;-3.03;80.12;100910.30;1632580;87;21065;-77
2022/01/21 02:49:47;;;;;;;5.57;1.10;;;;;;;-3.02;80.11;100908.20;1640749;87;21053;-76
2022/01/21 02:52:18;;;;;;;8.47;1.70;;;;;;;-3.00;80.11;100914.64;1640820;87;21029;-76
2022/01/21 02:54:44;;;;;;;25.00;8.70;;;;;;;-2.99;80.08;100907.42;1640668;85;21022;-76
2022/01/21 02:57:12;;;;;;;16.97;7.20;;;;;;;-2.99;80.08;100901.87;1640525;87;21216;-77
2022/01/21 02:59:40;;;;;;;5.77;1.90;;;;;;;-2.98;80.09;100904.02;1640490;87;21014;-76
2022/01/21 03:02:08;;;;;;;3.80;1.10;;;;;;;-2.99;80.05;100904.86;1640602;87;21102;-77
2022/01/21 03:04:52;;;;;;;9.27;1.40;;;;;;;-2.99;80.06;100905.72;1640568;87;21034;-77
2022/01/21 03:07:07;;;;;;;4.63;1.00;;;;;;;-2.99;80.01;100899.30;1639341;87;21539;-76
2022/01/21 03:09:34;;;;;;;4.10;1.07;;;;;;;-3.00;80.00;100911.66;1640628;87;21958;-77
2022/01/21 03:12:03;;;;;;;7.63;1.10;;;;;;;-3.01;80.00;100911.20;1640653;87;21006;-76
2022/01/21 03:14:30;;;;;;;4.80;0.90;;;;;;;-3.02;79.99;100913.72;1640500;87;21093;-77
2022/01/21 03:16:57;;;;;;;5.10;0.97;;;;;;;-3.03;79.99;100911.58;1640664;87;20965;-77
2022/01/21 03:19:24;;;;;;;7.93;1.87;;;;;;;-3.01;80.03;100916.76;1640559;87;21025;-76
2022/01/21 03:21:51;;;;;;;5.90;0.90;;;;;;;-3.02;80.00;100918.84;1640515;87;21180;-76
2022/01/21 03:24:18;;;;;;;5.30;1.30;;;;;;;-3.03;79.96;100920.55;1640806;87;21019;-76
2022/01/21 03:26:46;;;;;;;6.00;0.90;;;;;;;-3.03;79.94;100924.81;1640506;87;21574;-76
2022/01/21 03:29:13;;;;;;;4.37;1.13;;;;;;;-3.04;79.90;100934.63;1640921;87;21042;-77
2022/01/21 03:31:41;;;;;;;7.43;1.10;;;;;;;-3.05;79.94;100926.46;1640526;87;21106;-77
2022/01/21 03:34:10;;;;;;;4.30;1.30;;;;;;;-3.05;79.93;100931.59;1640802;87;21546;-76
2022/01/21 03:36:38;;;;;;;5.77;1.00;;;;;;;-3.07;79.91;100931.57;1640481;87;21042;-76
2022/01/21 03:39:06;;;;;;;5.77;1.33;;;;;;;-3.06;79.96;100917.91;1640742;87;21025;-76
2022/01/21 03:41:33;;;;;;;9.03;1.43;;;;;;;-3.05;79.96;100932.88;1640613;87;21559;-76
2022/01/21 03:44:00;;;;;;;6.67;1.23;;;;;;;-3.05;79.96;100927.75;1640862;87;21078;-77
2022/01/21 03:46:28;;;;;;;7.77;1.10;;;;;;;-3.04;79.99;100929.08;1640482;87;21128;-76
2022/01/21 03:48:56;;;;;;;3.53;0.70;;;;;;;-3.02;79.95;100935.52;1640550;87;21007;-76
2022/01/21 03:51:23;;;;;;;5.17;1.20;;;;;;;-2.98;79.99;100934.37;1640616;87;21057;-76
2022/01/21 03:53:52;;;;;;;3.60;1.20;;;;;;;-2.97;79.91;100932.67;1640495;87;21056;-76
2022/01/21 03:56:20;;;;;;;6.17;0.95;;;;;;;-2.96;79.86;100939.55;1640985;87;21022;-77
2022/01/21 03:58:47;;;;;;;4.87;0.87;;;;;;;-2.95;79.84;100929.31;1640471;87;21522;-77
2022/01/21 04:01:17;;;;;;;5.93;1.10;;;;;;;-2.92;79.85;100937.51;1640669;87;21037;-77
2022/01/21 04:03:45;;;;;;;4.47;1.10;;;;;;;-2.90;79.79;100938.42;1640592;87;21014;-77
2022/01/21 04:06:13;;;;;;;8.07;1.13;;;;;;;-2.88;79.78;100940.62;1640821;87;21471;-76
2022/01/21 04:08:40;;;;;;;5.60;1.40;;;;;;;-2.86;79.73;100936.38;1640597;87;21018;-77
2022/01/21 04:11:08;;;;;;;4.67;1.00;;;;;;;-2.84;79.67;100945.41;1640757;87;21132;-76
2022/01/21 04:13:37;;;;;;;7.07;1.27;;;;;;;-2.83;79.58;100947.14;1640404;87;21530;-77
2022/01/21 04:16:06;;;;;;;4.23;1.17;;;;;;;-2.82;79.58;100952.74;1640749;87;21093;-76
2022/01/21 04:18:34;;;;;;;5.93;1.03;;;;;;;-2.80;79.54;100945.93;1640603;87;21433;-76
2022/01/21 04:21:03;;;;;;;8.80;1.60;;;;;;;-2.81;79.43;100942.50;1640759;87;21085;-77
2022/01/21 04:23:32;;;;;;;4.30;1.20;;;;;;;-2.81;79.41;100939.94;1640680;87;21296;-76
2022/01/21 04:25:59;;;;;;;5.37;1.13;;;;;;;-2.80;79.37;100949.78;1640779;87;21057;-77
2022/01/21 04:28:29;;;;;;;4.03;1.20;;;;;;;-2.80;79.34;100943.36;1640464;87;21060;-77
2022/01/21 04:30:59;;;;;;;8.53;1.40;;;;;;;-2.80;79.29;100944.26;1640604;87;21071;-77
2022/01/21 04:33:28;;;;;;;6.25;1.27;;;;;;;-2.80;79.27;100948.50;1640358;87;21018;-76
2022/01/21 04:35:59;;;;;;;6.20;1.30;;;;;;;-2.81;79.24;100955.33;1640604;85;21113;-76
2022/01/21 04:38:27;;;;;;;5.80;1.30;;;;;;;-2.80;79.21;100945.93;1640444;87;21094;-76
2022/01/21 04:41:03;;;;;;;4.10;1.27;;;;;;;-2.81;79.16;100945.48;1640454;87;21077;-77
2022/01/21 04:48:55;;;;;;;7.07;1.20;;;;;;;-2.82;79.11;100938.21;1640557;87;21046;-77
2022/01/21 04:51:27;;;;;;;6.53;1.10;;;;;;;-2.84;79.00;100944.12;1640346;87;21069;-77
2022/01/21 04:53:51;;;;;;;7.37;1.47;;;;;;;-2.86;79.06;100937.66;1640411;87;21041;-77
2022/01/21 04:56:21;;;;;;;6.43;1.40;;;;;;;-2.85;79.07;100935.57;1640489;87;21101;-76
2022/01/21 04:58:49;;;;;;;3.93;1.20;;;;;;;-2.84;79.11;100939.00;1640828;87;21018;-77
2022/01/21 05:01:16;;;;;;;3.40;1.37;;;;;;;-2.83;79.16;100935.59;1640516;87;21144;-77
2022/01/21 05:03:45;;;;;;;4.70;1.73;;;;;;;-2.81;79.17;100936.09;1640639;87;21037;-77
2022/01/21 05:06:12;;;;;;;4.30;1.50;;;;;;;-2.79;79.10;100942.14;1640482;87;21025;-77
2022/01/21 05:08:45;;;;;;;6.07;1.60;;;;;;;-2.78;79.06;100934.02;1640796;87;21086;-76
2022/01/21 05:11:09;;;;;;;7.97;1.60;;;;;;;-2.77;79.03;100940.48;1640552;85;21038;-77
2022/01/21 05:13:40;;;;;;;9.17;1.37;;;;;;;-2.74;79.07;100944.83;1640748;87;21476;-76
2022/01/21 05:16:29;;;;;;;6.62;1.40;;;;;;;-2.73;79.05;100957.69;1640715;85;21018;-77
2022/01/21 05:18:38;;;;;;;7.90;1.50;;;;;;;-2.71;79.04;100963.73;1639537;87;21082;-77
2022/01/21 05:21:14;;;;;;;8.70;1.27;;;;;;;-2.68;79.01;100954.38;1639614;87;21046;-76
2022/01/21 05:23:43;;;;;;;6.53;1.50;;;;;;;-2.67;79.00;100958.25;1640226;87;21507;-76
2022/01/21 05:26:12;;;;;;;6.37;1.07;;;;;;;-2.66;78.94;100960.01;1640582;87;21144;-76
2022/01/21 05:28:39;;;;;;;4.13;1.03;;;;;;;-2.65;78.92;100968.15;1640744;87;21017;-76
2022/01/21 05:31:08;;;;;;;5.07;0.93;;;;;;;-2.65;78.86;100958.31;1640180;87;20998;-76
2022/01/21 05:33:36;;;;;;;5.10;1.33;;;;;;;-2.64;78.85;100967.31;1629687;86;21514;-76
2022/01/21 05:36:11;;;;;;;8.70;1.10;;;;;;;-2.63;78.88;100972.92;1625002;87;21069;-76
2022/01/21 05:38:59;;;;;;;8.10;1.20;;;;;;;-2.62;78.85;100968.64;1640801;87;21153;-76
2022/01/21 05:41:37;;;;;;;7.85;1.57;;;;;;;-2.60;78.82;100975.98;1639851;85;21082;-76
2022/01/21 05:47:07;;;;;;;4.07;1.23;;;;;;;-2.60;78.77;100981.97;1603356;87;21114;-76
2022/01/21 05:49:43;;;;;;;4.92;1.20;;;;;;;-2.56;78.82;100983.77;1611843;87;21027;-76
2022/01/21 05:52:19;;;;;;;5.73;0.87;;;;;;;-2.53;78.83;100980.00;1601008;87;21193;-76
2022/01/21 05:54:51;;;;;;;6.67;1.33;;;;;;;-2.50;78.87;100981.36;1631101;87;21073;-77
2022/01/21 05:57:23;;;;;;;6.33;1.47;;;;;;;-2.43;78.94;100985.39;1639860;87;21573;-77
2022/01/21 05:59:51;;;;;;;10.20;1.30;;;;;;;-2.38;78.97;100984.67;1640622;87;21025;-77
2022/01/21 06:02:18;;;;;;;6.07;1.27;;;;;;;-2.32;78.94;100978.81;1640913;87;21053;-76
2022/01/21 06:04:49;;;;;;;10.93;1.87;;;;;;;-2.28;78.91;100979.33;1640663;87;21278;-77
2022/01/21 06:07:14;;;;;;;4.20;1.43;;;;;;;-2.22;78.87;100979.89;1640645;87;21002;-76
2022/01/21 06:09:43;;;;;;;5.57;1.37;;;;;;;-2.19;78.84;100983.43;1640696;87;21085;-77
2022/01/21 06:12:11;;;;;;;8.73;1.70;;;;;;;-2.15;78.75;100983.94;1640598;87;21062;-77
2022/01/21 06:14:38;;;;;;;2.30;1.10;;;;;;;-2.12;78.64;100984.43;1640934;87;21481;-76
2022/01/21 06:17:07;;;;;;;7.60;1.50;;;;;;;-2.09;78.54;100985.78;1640522;87;21378;-77
2022/01/21 06:19:34;;;;;;;7.30;1.53;;;;;;;-2.10;78.37;100995.19;1640643;87;21495;-76
2022/01/21 06:22:01;;;;;;;5.33;1.57;;;;;;;-2.12;78.18;100990.42;1640915;87;21316;-76
2022/01/21 06:24:28;;;;;;;6.73;1.20;;;;;;;-2.14;78.06;100986.09;1640712;87;21030;-76
2022/01/21 06:27:00;;;;;;;5.03;1.37;;;;;;;-2.17;78.04;100997.15;1640781;87;21041;-76
2022/01/21 06:29:24;;;;;;;5.83;1.70;;;;;;;-2.18;77.96;100993.28;1640853;85;22107;-76
2022/01/21 06:31:50;;;;;;;8.80;1.50;;;;;;;-2.22;77.81;100996.16;1640515;87;21603;-76
2022/01/21 06:34:18;;;;;;;6.43;2.07;;;;;;;-2.26;77.78;101001.65;1641075;87;21490;-76
2022/01/21 06:36:45;;;;;;;6.23;1.00;;;;;;;-2.29;77.67;101000.30;1640753;87;20967;-76
2022/01/21 06:39:12;;;;;;;4.67;1.27;;;;;;;-2.33;77.62;100999.78;1641027;87;21274;-76
2022/01/21 06:41:40;;;;;;;5.80;1.10;;;;;;;-2.35;77.59;100997.58;1640739;87;21088;-76
2022/01/21 06:44:07;;;;;;;5.33;1.37;;;;;;;-2.39;77.45;100998.31;1640692;87;21042;-76
2022/01/21 06:46:35;;;;;;;4.90;1.00;;;;;;;-2.43;77.42;101006.78;1640618;87;21033;-76
2022/01/21 06:49:03;;;;;;;5.77;1.20;;;;;;;-2.47;77.37;100998.53;1640843;87;21058;-76
2022/01/21 06:51:30;;;;;;;4.57;0.80;;;;;;;-2.49;77.41;101007.92;1640549;87;21033;-76
2022/01/21 06:53:57;;;;;;;5.27;1.10;;;;;;;-2.52;77.40;101008.70;1640981;87;21795;-76
2022/01/21 06:56:24;;;;;;;2.67;0.83;;;;;;;-2.54;77.32;101016.77;1640562;87;21026;-76
2022/01/21 06:58:51;;;;;;;7.03;1.47;;;;;;;-2.56;77.29;101017.56;1640819;87;21525;-76
2022/01/21 07:01:18;;;;;;;4.63;1.00;;;;;;;-2.59;77.20;101018.77;1640482;87;21554;-76
2022/01/21 07:03:45;;;;;;;4.20;0.87;;;;;;;-2.60;77.23;101022.17;1640836;87;21029;-76
2022/01/21 07:06:12;;;;;;;5.60;1.30;;;;;;;-2.64;77.17;101033.17;1640580;87;21152;-76
2022/01/21 07:08:39;;;;;;;4.17;1.30;;;;;;;-2.68;77.16;101031.36;1640549;87;21496;-76
2022/01/21 07:11:06;;;;;;;8.37;1.90;;;;;;;-2.70;77.09;101028.32;1640596;87;20999;-76
2022/01/21 07:13:34;;;;;;;3.70;1.50;;;;;;;-2.71;77.16;101027.02;1640767;87;21050;-76
2022/01/21 07:16:01;;;;;;;6.30;1.90;;;;;;;-2.71;77.11;101023.17;1640598;87;21060;-76
2022/01/21 07:18:28;;;;;;;6.63;1.60;;;;;;;-2.72;77.07;101030.39;1640841;87;21122;-76
2022/01/21 07:20:55;;;;;;;6.30;1.27;;;;;;;-2.72;77.09;101042.80;1640481;87;21630;-76
2022/01/21 07:23:22;;;;;;;4.43;1.50;;;;;;;-2.72;77.14;101017.56;1640744;87;21041;-76
2022/01/21 07:25:50;;;;;;;3.40;1.17;;;;;;;-2.72;77.11;101050.50;1640585;87;21042;-76
2022/01/21 07:28:17;;;;;;;4.03;1.27;;;;;;;-2.71;77.07;101043.27;1640680;87;21096;-76
2022/01/21 07:30:44;;;;;;;9.07;2.83;;;;;;;-2.70;77.11;101042.44;1640576;87;21148;-76
2022/01/21 07:33:13;;;;;;;8.10;2.63;;;;;;;-2.68;77.10;101069.44;1640809;87;21046;-76
2022/01/21 07:35:41;;;;;;;6.10;1.60;;;;;;;-2.65;77.03;101047.70;1640565;87;21522;-76
2022/01/21 07:38:08;;;;;;;5.73;1.40;;;;;;;-2.65;76.97;101055.40;1640783;87;21522;-76
2022/01/21 07:40:35;;;;;;;6.03;1.20;;;;;;;-2.62;76.93;101034.09;1640584;87;21054;-76
2022/01/21 07:43:03;;;;;;;5.23;1.13;;;;;;;-2.62;76.90;101041.36;1640899;87;21825;-76
2022/01/21 07:45:30;;;;;;;3.53;1.10;;;;;;;-2.61;76.78;101048.64;1640604;87;21022;-76
2022/01/21 07:47:57;;;;;;;4.20;0.93;;;;;;;-2.61;76.71;101053.78;1640697;87;21049;-76
2022/01/21 07:50:24;;;;;;;2.90;1.00;;;;;;;-2.61;76.68;101050.79;1640631;87;21061;-76
2022/01/21 07:52:54;;;;;;;4.10;1.03;;;;;;;-2.61;76.67;101057.20;1640908;87;21282;-75
2022/01/21 07:55:21;;;;;;;4.15;0.90;;;;;;;-2.61;76.69;101060.19;1640727;87;21200;-76
2022/01/21 07:57:48;;;;;;;3.47;1.00;;;;;;;-2.62;76.57;101063.59;1640752;87;21062;-76
2022/01/21 08:00:15;;;;;;;4.43;1.30;;;;;;;-2.62;76.63;101079.86;1640568;87;21037;-76
2022/01/21 08:02:42;;;;;;;5.50;1.60;;;;;;;-2.63;76.58;101057.61;1640873;87;21010;-76
2022/01/21 08:05:10;;;;;;;8.87;1.50;;;;;;;-2.63;76.45;101059.27;1640459;87;21045;-76
2022/01/21 08:07:37;;;;;;;3.50;1.30;;;;;;;-2.65;76.47;101068.23;1640855;87;21944;-76
2022/01/21 08:10:05;;;;;;;4.63;1.50;;;;;;;-2.66;76.40;101058.80;1640535;87;20981;-76
2022/01/21 08:12:32;;;;;;;3.77;1.40;;;;;;;-2.67;76.38;101062.18;1640557;87;21010;-76
2022/01/21 08:14:59;;;;;;;5.37;1.70;;;;;;;-2.65;76.43;101071.22;1640852;87;21049;-76
2022/01/21 08:17:29;;;;;;;4.53;1.30;;;;;;;-2.65;76.38;101075.93;1640477;87;21029;-76
2022/01/21 08:19:59;;;;;;;5.30;1.60;;;;;;;-2.61;76.42;101073.02;1640857;87;21126;-76
2022/01/21 08:22:27;;;;;;;7.95;1.82;;;;;;;-2.59;76.31;101076.09;1640590;87;20946;-76
2022/01/21 08:24:55;;;;;;;8.37;2.43;;;;;;;-2.55;76.33;101074.47;1640678;87;21014;-76
2022/01/21 08:27:23;;;;;;;5.60;1.50;;;;;;;-2.54;76.28;101068.53;1640610;87;21010;-76
2022/01/21 08:29:50;;;;;;;7.17;1.70;;;;;;;-2.52;76.23;101083.14;1640774;87;21034;-76
2022/01/21 08:32:19;;;;;;;5.77;1.53;;;;;;;-2.50;76.17;101093.44;1640605;87;21140;-76
2022/01/21 08:34:47;;;;;;;5.73;1.80;;;;;;;-2.48;76.21;101091.36;1640716;87;21042;-76
2022/01/21 08:37:14;;;;;;;4.17;1.20;;;;;;;-2.43;76.21;101102.19;1640528;87;20942;-76
2022/01/21 08:39:43;;;;;;;5.30;1.40;;;;;;;-2.42;76.12;101109.05;1640756;87;21499;-75
2022/01/21 08:42:11;;;;;;;7.60;1.50;;;;;;;-2.38;76.09;101114.70;1640768;87;21561;-76
2022/01/21 08:44:38;;;;;;;7.20;1.83;;;;;;;-2.34;76.06;101103.70;1640592;87;21260;-76
2022/01/21 08:47:05;;;;;;;5.93;1.60;;;;;;;-2.31;76.02;101110.20;1640681;87;21053;-77
2022/01/21 08:49:32;;;;;;;9.40;1.70;;;;;;;-2.29;75.96;101107.27;1640535;87;21022;-76
2022/01/21 08:52:00;;;;;;;5.70;1.47;;;;;;;-2.26;75.87;101112.48;1640761;87;21037;-76
2022/01/21 08:54:29;;;;;;;8.07;1.90;;;;;;;-2.21;75.83;101112.20;1640623;87;21062;-77
2022/01/21 08:56:58;;;;;;;5.60;1.30;;;;;;;-2.18;75.82;101109.70;1640872;87;21132;-76
2022/01/21 08:59:28;;;;;;;6.77;1.50;;;;;;;-2.16;75.74;101122.18;1640384;87;21037;-76
2022/01/21 09:01:55;;;;;;;5.45;1.30;;;;;;;-2.14;75.69;101111.51;1640908;87;21037;-76
2022/01/21 09:04:22;;;;;;;5.50;1.63;;;;;;;-2.10;75.52;101118.91;1640490;87;20998;-77
2022/01/21 09:06:50;;;;;;;6.10;1.77;;;;;;;-2.08;75.51;101123.25;1640664;87;21056;-76
2022/01/21 09:09:16;;;;;;;6.97;1.90;;;;;;;-2.03;75.48;101124.63;1640646;87;21887;-76
2022/01/21 09:11:44;;;;;;;6.77;1.70;;;;;;;-1.99;75.43;101115.33;1640751;87;21069;-76
2022/01/21 09:14:11;;;;;;;4.73;1.30;;;;;;;-1.95;75.30;101118.41;1640886;87;21575;-77
2022/01/21 09:16:42;;;;;;;3.83;1.43;;;;;;;-1.93;75.19;101118.91;1640717;87;21505;-76
2022/01/21 09:19:08;;;;;;;4.97;1.50;;;;;;;-1.87;75.27;101121.63;1640971;87;21037;-77
2022/01/21 09:21:42;;;;;;;7.03;1.47;;;;;;;-1.81;75.10;101115.77;1640642;87;21100;-76
2022/01/21 09:24:08;;;;;;;7.17;1.50;;;;;;;-1.77;75.05;101123.12;1641033;85;21568;-76
2022/01/21 09:26:35;;;;;;;4.97;1.30;;;;;;;-1.72;74.98;101119.84;1640654;87;21327;-76
2022/01/21 09:29:05;;;;;;;4.53;1.30;;;;;;;-1.68;74.89;101117.81;1640898;87;21057;-76
2022/01/21 09:31:33;;;;;;;4.75;1.12;;;;;;;-1.63;74.85;101113.66;1640777;87;21538;-76
2022/01/21 09:34:00;;;;;;;8.40;1.70;;;;;;;-1.57;74.69;101115.51;1640986;87;21193;-76
2022/01/21 09:36:27;;;;;;;5.80;1.40;;;;;;;-1.52;74.70;101116.48;1640686;87;21510;-76
2022/01/21 09:38:55;;;;;;;6.70;2.00;;;;;;;-1.47;74.57;101132.00;1640873;87;21033;-77
2022/01/21 09:41:23;;;;;;;5.67;2.17;;;;;;;-1.41;74.48;101111.18;1640718;87;21041;-76
2022/01/21 09:43:53;;;;;;;3.67;1.13;;;;;;;-1.35;74.41;101114.31;1640833;87;21045;-76
2022/01/21 09:46:31;;;;;;;5.95;1.47;;;;;;;-1.27;74.37;101110.20;1640701;87;21239;-76
2022/01/21 09:49:07;;;;;;;7.00;1.17;;;;;;;-1.21;74.15;101106.91;1640558;87;21021;-77
2022/01/21 09:51:26;;;;;;;3.77;1.40;;;;;;;-1.17;74.18;101109.98;1640052;87;21021;-77
2022/01/21 09:53:53;;;;;;;9.07;1.77;;;;;;;-1.15;73.91;101118.19;1640991;85;21022;-77
2022/01/21 09:56:20;;;;;;;4.50;1.27;;;;;;;-1.08;73.89;101107.63;1640666;87;21029;-77
2022/01/21 09:58:47;;;;;;;9.33;1.60;;;;;;;-1.05;73.78;101116.70;1640646;87;21087;-77
2022/01/21 10:01:18;;;;;;;3.47;1.10;;;;;;;-1.01;73.67;101104.76;1640887;87;21507;-76
2022/01/21 10:03:48;;;;;;;4.37;1.67;;;;;;;-0.91;73.65;101093.83;1640599;87;21089;-77
2022/01/21 10:06:15;;;;;;;5.63;1.50;;;;;;;-0.78;73.67;101084.64;1640840;87;21030;-77
2022/01/21 10:08:44;;;;;;;3.77;1.30;;;;;;;-0.69;73.53;101106.30;1640563;87;21491;-77
2022/01/21 10:11:12;;;;;;;4.07;1.40;;;;;;;-0.64;73.32;101102.94;1640844;87;21964;-77
2022/01/21 10:13:39;;;;;;;8.63;1.60;;;;;;;-0.54;73.31;101114.73;1640525;87;21037;-77
2022/01/21 10:16:09;;;;;;;6.83;1.83;;;;;;;-0.44;73.25;101114.52;1640864;87;21280;-77
2022/01/21 10:18:36;;;;;;;4.20;1.50;;;;;;;-0.41;73.02;101111.99;1640720;87;21006;-77
2022/01/21 10:21:12;;;;;;;6.07;1.97;;;;;;;-0.35;72.94;101117.68;1640717;87;21061;-77
2022/01/21 10:23:43;;;;;;;4.90;1.77;;;;;;;-0.28;72.88;101107.92;1640500;87;21156;-77
2022/01/21 10:26:14;;;;;;;5.73;1.77;;;;;;;-0.26;72.64;101106.25;1640560;87;21518;-77
2022/01/21 10:28:45;;;;;;;6.37;1.80;;;;;;;-0.26;72.45;101110.11;1640952;87;21045;-77
2022/01/21 10:31:18;;;;;;;8.77;2.67;;;;;;;-0.22;72.31;101109.34;1640590;87;21078;-76
2022/01/21 10:33:53;;;;;;;9.87;4.13;;;;;;;-0.17;72.31;101097.81;1640808;86;21060;-77
2022/01/21 10:36:27;;;;;;;8.37;3.00;;;;;;;-0.12;72.10;101096.19;1640709;87;21472;-77
2022/01/21 10:39:11;;;;;;;4.07;1.60;;;;;;;-0.08;72.04;101094.99;1640958;87;21065;-77
2022/01/21 10:41:44;;;;;;;6.43;1.90;;;;;;;-0.01;72.06;101103.69;1639020;87;21010;-78
2022/01/21 10:44:17;;;;;;;8.23;2.37;;;;;;;0.03;72.00;101106.78;1640851;87;21049;-77
2022/01/21 10:47:10;;;;;;;10.10;2.50;;;;;;;0.07;71.74;101109.84;1640732;87;21018;-78
2022/01/21 10:49:40;;;;;;;6.87;2.43;;;;;;;0.15;72.01;101104.40;1640795;87;21299;-78
2022/01/21 10:52:15;;;;;;;7.95;2.27;;;;;;;0.15;71.69;101104.40;1640629;87;21748;-77
2022/01/21 10:54:49;;;;;;;7.03;1.70;;;;;;;0.21;71.70;101097.19;1640776;87;21037;-78
2022/01/21 10:57:20;;;;;;;6.83;2.20;;;;;;;0.16;71.38;101096.23;1640637;87;21030;-77
2022/01/21 11:00:07;;;;;;;5.83;2.00;;;;;;;0.33;71.79;101097.80;1640585;87;21534;-77
2022/01/21 11:02:53;;;;;;;4.40;1.97;;;;;;;0.49;71.58;101102.78;1640609;87;22089;-77
2022/01/21 11:05:36;;;;;;;4.47;1.80;;;;;;;0.56;71.44;101095.59;1639754;87;21053;-77
2022/01/21 11:08:04;;;;;;;9.07;2.67;;;;;;;0.62;71.18;101104.28;1640727;85;21018;-77
2022/01/21 11:10:37;;;;;;;7.03;2.43;;;;;;;0.80;71.22;101096.35;1640872;85;21081;-77
2022/01/21 11:13:19;;;;;;;7.50;1.60;;;;;;;0.65;70.55;101103.46;1640884;87;21078;-77
2022/01/21 11:15:50;;;;;;;9.20;2.77;;;;;;;0.62;70.95;101103.42;1640649;87;21921;-77
2022/01/21 11:18:19;;;;;;;6.77;2.13;;;;;;;0.88;71.17;101098.19;1640867;87;21057;-77
2022/01/21 11:20:55;;;;;;;6.47;1.83;;;;;;;0.80;70.97;101104.09;1640783;87;21053;-77
2022/01/21 11:23:22;;;;;;;5.33;1.73;;;;;;;0.62;70.78;101099.55;1640679;87;21412;-77
2022/01/21 11:25:57;;;;;;;9.90;2.63;;;;;;;0.45;70.81;101108.33;1640813;87;21046;-78
2022/01/21 11:28:41;;;;;;;5.27;1.90;;;;;;;0.47;71.00;101098.88;1640588;87;21161;-77
2022/01/21 11:31:09;;;;;;;9.13;2.47;;;;;;;0.54;71.03;101111.03;1640680;87;21048;-77
2022/01/21 11:33:37;;;;;;;5.30;1.77;;;;;;;0.75;71.43;101101.87;1640831;87;22027;-77
2022/01/21 11:36:06;;;;;;;6.77;1.97;;;;;;;0.77;71.00;101084.27;1640631;87;21020;-77
2022/01/21 11:38:39;;;;;;;7.37;2.37;;;;;;;0.91;70.96;101083.59;1640677;87;21045;-77
2022/01/21 11:41:09;;;;;;;6.80;2.13;;;;;;;1.15;70.88;101086.93;1640563;87;21556;-77
2022/01/21 11:43:38;;;;;;;6.00;2.00;;;;;;;1.39;70.87;101076.03;1640615;87;21113;-78
2022/01/21 11:48:57;;;;;;;7.27;2.67;;;;;;;1.73;70.19;101050.11;1640722;87;21026;-77
2022/01/21 11:51:32;;;;;;;5.95;2.00;;;;;;;1.81;69.88;101047.17;1640919;87;21588;-78
2022/01/21 11:54:05;;;;;;;8.17;2.20;;;;;;;2.01;69.71;101049.93;1640678;87;21161;-78
2022/01/21 11:56:48;;;;;;;10.07;3.13;;;;;;;2.18;69.51;101046.18;1640809;87;21018;-78
2022/01/21 12:00:20;;;;;;;7.03;2.30;;;;;;;2.28;69.02;101041.95;1640501;87;21049;-78
2022/01/21 12:02:00;;;;;;;7.07;2.33;;;;;;;2.25;68.74;101037.63;1619726;87;21026;-78
2022/01/21 12:04:40;;;;;;;7.70;2.92;;;;;;;2.18;69.05;101032.81;1624886;87;21498;-78
2022/01/21 12:07:42;;;;;;;7.10;2.17;;;;;;;2.12;68.64;101037.95;1640898;87;21121;-77
2022/01/21 12:10:18;;;;;;;6.63;1.93;;;;;;;2.04;68.49;101044.78;1640561;87;21025;-78
2022/01/21 12:18:22;;;;;;;10.77;4.27;;;;;;;1.97;68.50;101046.46;1640895;87;21061;-78
2022/01/21 12:20:38;;;;;;;6.47;2.40;;;;;;;1.95;68.62;101036.52;1638074;87;21162;-77
2022/01/21 12:23:21;;;;;;;4.93;2.17;;;;;;;1.99;68.77;101029.22;1640657;87;21041;-77
2022/01/21 12:26:11;;;;;;;5.57;2.10;;;;;;;2.00;68.55;101034.84;1640545;87;21025;-77
2022/01/21 12:28:56;;;;;;;7.07;2.30;;;;;;;1.99;68.55;101026.63;1640809;87;21018;-78
2022/01/21 12:31:26;;;;;;;5.23;1.97;;;;;;;2.02;68.47;101021.91;1640661;87;21061;-77
2022/01/21 12:34:15;;;;;;;5.83;2.07;;;;;;;2.01;68.07;101013.73;1640581;87;21168;-77